Ana Sayfa
METAR-TAF:

METAR-TAF

Havaalanları :

Atlanta, Georgia, Amerika Birleşik Devletleri

Atlanta Hartsfield

Enlem: 33-38-25N, Boylam: 084-25-37W, yükseklik: 313 m

Güncel hava durumu gözlemi

Rapor saat 08:52 UTC de 36 dakika önce yapıldı.
Rüzgar batı/kuzeybatıdan 7 kt
Sıcaklık -3°C
Nem 58%
Basınç 1026 hPa
Görüş mesafesi: 16.1 km
Açık gökyüzü

METAR: KATL 190852Z 30007KT 10SM CLR M03/M10 A3029 RMK AO2 SLP265 T10281100 58003

Saat: 04:28 (09:28 UTC)

Tahmin

Rapor saat 08:03 UTC de 1 saat ve 25 dakika önce yapıldı.
Ayın 19'si saat 08 UTC'den ayın 20'si saat 12 UTC'ye kadar geçerli Tahmin
Rüzgar batı/kuzeybatıdan 8 kt
Görüş mesafesi: 10 km
Açık gökyüzü
Ayın 20'si saat 0000 UTC'den
Rüzgar batıdan 4 kt
Görüş mesafesi: 10 km
Açık gökyüzü

TAF: KATL 190803Z 1908/2012 29008KT P6SM SKC FM200000 27004KT P6SM SKC

4.000'den fazla havaalanı için hava durumu gözlemleri ve tahminleri (METAR ve TAF raporları).

Kullanılabilir istasyonlar harita üzerinde sarı ve kırmızı noktalarla gösterilir.

İstasyonun adını görmek için fareyi noktanın üzerinde gezdirin.

Sonrasında hava gözlem ve tahminlerini görmek için tıklayın.

Haritayı değiştirmek için: yaklaştırmak için siyah artı işaretli yeşil düğmeye ve uzaklaştırmak için de eksi işaretli düğmeye hızla tıklayın; bitişik haritalar için yeşil okları kullanın.


METAR-TAF: